Time;durP1;ratioP1;P1;durP2;ratioP2;P2;SDS_P1;SDS_P2;PMS_P1;PMS_P2;Temp;Humidity;BMP_temperature;BMP_pressure;BME280_temperature;BME280_humidity;BME280_pressure;Samples;Min_cycle;Max_cycle;Signal;HPM_P1;HPM_P2
2019/09/23 00:00:46;;;;;;;9.1;8.199999;;;;;;;10.44;93.86719;94679.42;;;;
2019/09/23 00:01:49;;;;;;;9.1;8.199999;;;;;;;10.44;93.86719;94679.42;;;;
2019/09/23 00:02:50;;;;;;;9.1;8.199999;;;;;;;10.44;93.86719;94679.42;;;;
2019/09/23 00:03:51;;;;;;;9.1;8.199999;;;;;;;10.44;93.86719;94679.42;;;;
2019/09/23 00:04:52;;;;;;;9.1;8.199999;;;;;;;10.44;93.86719;94679.42;;;;
2019/09/23 00:05:53;;;;;;;9.1;8.199999;;;;;;;10.44;93.86719;94679.42;;;;
2019/09/23 00:06:55;;;;;;;9.1;8.199999;;;;;;;10.44;93.86719;94679.42;;;;
2019/09/23 00:07:56;;;;;;;9.1;8.199999;;;;;;;10.44;93.86719;94679.42;;;;
2019/09/23 00:08:57;;;;;;;9.950001;8.950002;;;;;;;10.68;94.13184;94691.21;;;;
2019/09/23 00:09:58;;;;;;;9.950001;8.950002;;;;;;;10.68;94.13184;94691.21;;;;
2019/09/23 00:10:59;;;;;;;9.950001;8.950002;;;;;;;10.68;94.13184;94691.21;;;;
2019/09/23 00:12:01;;;;;;;9.950001;8.950002;;;;;;;10.68;94.13184;94691.21;;;;
2019/09/23 00:13:04;;;;;;;9.950001;8.950002;;;;;;;10.68;94.13184;94691.21;;;;
2019/09/23 00:14:05;;;;;;;9.950001;8.950002;;;;;;;10.68;94.13184;94691.21;;;;
2019/09/23 00:15:07;;;;;;;9.950001;8.950002;;;;;;;10.68;94.13184;94691.21;;;;
2019/09/23 00:16:09;;;;;;;9.950001;8.950002;;;;;;;10.68;94.13184;94691.21;;;;
2019/09/23 00:17:11;;;;;;;9.950001;8.950002;;;;;;;10.68;94.13184;94691.21;;;;
2019/09/23 00:18:12;;;;;;;9.950001;8.950002;;;;;;;10.68;94.13184;94691.21;;;;
2019/09/23 00:19:15;;;;;;;9.299998;8.399999;;;;;;;10.93;94.09961;94692.05;;;;
2019/09/23 00:20:16;;;;;;;9.299998;8.399999;;;;;;;10.93;94.09961;94692.05;;;;
2019/09/23 00:21:19;;;;;;;9.299998;8.399999;;;;;;;10.93;94.09961;94692.05;;;;
2019/09/23 00:22:20;;;;;;;9.299998;8.399999;;;;;;;10.93;94.09961;94692.05;;;;
2019/09/23 00:23:22;;;;;;;9.299998;8.399999;;;;;;;10.93;94.09961;94692.05;;;;
2019/09/23 00:24:23;;;;;;;9.299998;8.399999;;;;;;;10.93;94.09961;94692.05;;;;
2019/09/23 00:25:24;;;;;;;9.299998;8.399999;;;;;;;10.93;94.09961;94692.05;;;;
2019/09/23 00:26:29;;;;;;;9.299998;8.399999;;;;;;;10.93;94.09961;94692.05;;;;
2019/09/23 00:27:30;;;;;;;9.299998;8.399999;;;;;;;10.93;94.09961;94692.05;;;;
2019/09/23 00:28:31;;;;;;;9.299998;8.399999;;;;;;;10.93;94.09961;94692.05;;;;
2019/09/23 00:29:32;;;;;;;9;8.100001;;;;;;;10.89;94.40039;94687.69;;;;
2019/09/23 00:30:34;;;;;;;9;8.100001;;;;;;;10.89;94.40039;94687.69;;;;
2019/09/23 00:31:37;;;;;;;9;8.100001;;;;;;;10.89;94.40039;94687.69;;;;
2019/09/23 00:32:38;;;;;;;9;8.100001;;;;;;;10.89;94.40039;94687.69;;;;
2019/09/23 00:33:39;;;;;;;9;8.100001;;;;;;;10.89;94.40039;94687.69;;;;
2019/09/23 00:34:40;;;;;;;9;8.100001;;;;;;;10.89;94.40039;94687.69;;;;
2019/09/23 00:35:41;;;;;;;9;8.100001;;;;;;;10.89;94.40039;94687.69;;;;
2019/09/23 00:36:48;;;;;;;9;8.100001;;;;;;;10.89;94.40039;94687.69;;;;
2019/09/23 00:37:49;;;;;;;9;8.100001;;;;;;;10.89;94.40039;94687.69;;;;
2019/09/23 00:38:50;;;;;;;9;8.100001;;;;;;;10.89;94.40039;94687.69;;;;
2019/09/23 00:39:52;;;;;;;9;8.100001;;;;;;;10.89;94.40039;94687.69;;;;
2019/09/23 00:40:53;;;;;;;8.950002;8.050001;;;;;;;10.99;94.8252;94676.19;;;;
2019/09/23 00:42:02;;;;;;;8.950002;8.050001;;;;;;;10.99;94.8252;94676.19;;;;
2019/09/23 00:43:04;;;;;;;8.950002;8.050001;;;;;;;10.99;94.8252;94676.19;;;;
2019/09/23 00:44:06;;;;;;;8.950002;8.050001;;;;;;;10.99;94.8252;94676.19;;;;
2019/09/23 00:45:08;;;;;;;8.950002;8.050001;;;;;;;10.99;94.8252;94676.19;;;;
2019/09/23 00:46:10;;;;;;;8.950002;8.050001;;;;;;;10.99;94.8252;94676.19;;;;
2019/09/23 00:47:11;;;;;;;8.950002;8.050001;;;;;;;10.99;94.8252;94676.19;;;;
2019/09/23 00:48:13;;;;;;;8.950002;8.050001;;;;;;;10.99;94.8252;94676.19;;;;
2019/09/23 00:49:14;;;;;;;8.950002;8.050001;;;;;;;10.99;94.8252;94676.19;;;;
2019/09/23 00:50:15;;;;;;;8.950002;8.050001;;;;;;;10.99;94.8252;94676.19;;;;
2019/09/23 00:51:19;;;;;;;10.5;8.65;;;;;;;11.1;95.00879;94671.56;;;;
2019/09/23 00:52:20;;;;;;;10.5;8.65;;;;;;;11.1;95.00879;94671.56;;;;
2019/09/23 00:53:21;;;;;;;10.5;8.65;;;;;;;11.1;95.00879;94671.56;;;;
2019/09/23 00:54:23;;;;;;;10.5;8.65;;;;;;;11.1;95.00879;94671.56;;;;
2019/09/23 00:55:24;;;;;;;10.5;8.65;;;;;;;11.1;95.00879;94671.56;;;;
2019/09/23 00:56:26;;;;;;;10.5;8.65;;;;;;;11.1;95.00879;94671.56;;;;
2019/09/23 00:57:27;;;;;;;10.5;8.65;;;;;;;11.1;95.00879;94671.56;;;;
2019/09/23 00:58:28;;;;;;;10.5;8.65;;;;;;;11.1;95.00879;94671.56;;;;
2019/09/23 00:59:30;;;;;;;10.5;8.65;;;;;;;11.1;95.00879;94671.56;;;;
2019/09/23 01:00:31;;;;;;;10.5;8.65;;;;;;;11.1;95.00879;94671.56;;;;
2019/09/23 01:01:33;;;;;;;9.549999;8.599999;;;;;;;11.25;95.22266;94678.91;;;;
2019/09/23 01:02:35;;;;;;;9.549999;8.599999;;;;;;;11.25;95.22266;94678.91;;;;
2019/09/23 01:03:36;;;;;;;9.549999;8.599999;;;;;;;11.25;95.22266;94678.91;;;;
2019/09/23 01:04:38;;;;;;;9.549999;8.599999;;;;;;;11.25;95.22266;94678.91;;;;
2019/09/23 01:05:39;;;;;;;9.549999;8.599999;;;;;;;11.25;95.22266;94678.91;;;;
2019/09/23 01:06:40;;;;;;;9.549999;8.599999;;;;;;;11.25;95.22266;94678.91;;;;
2019/09/23 01:07:42;;;;;;;9.549999;8.599999;;;;;;;11.25;95.22266;94678.91;;;;
2019/09/23 01:08:43;;;;;;;9.549999;8.599999;;;;;;;11.25;95.22266;94678.91;;;;
2019/09/23 01:09:44;;;;;;;9.549999;8.599999;;;;;;;11.25;95.22266;94678.91;;;;
2019/09/23 01:10:45;;;;;;;9.549999;8.599999;;;;;;;11.25;95.22266;94678.91;;;;
2019/09/23 01:12:06;;;;;;;10.45;9.350001;;;;;;;11.38;95.39844;94699.31;;;;
2019/09/23 01:13:07;;;;;;;10.45;9.350001;;;;;;;11.38;95.39844;94699.31;;;;
2019/09/23 01:14:08;;;;;;;10.45;9.350001;;;;;;;11.38;95.39844;94699.31;;;;
2019/09/23 01:15:10;;;;;;;10.45;9.350001;;;;;;;11.38;95.39844;94699.31;;;;
2019/09/23 01:16:12;;;;;;;10.45;9.350001;;;;;;;11.38;95.39844;94699.31;;;;
2019/09/23 01:17:13;;;;;;;10.45;9.350001;;;;;;;11.38;95.39844;94699.31;;;;
2019/09/23 01:18:14;;;;;;;10.45;9.350001;;;;;;;11.38;95.39844;94699.31;;;;
2019/09/23 01:19:16;;;;;;;10.45;9.350001;;;;;;;11.38;95.39844;94699.31;;;;
2019/09/23 01:20:17;;;;;;;10.45;9.350001;;;;;;;11.38;95.39844;94699.31;;;;
2019/09/23 01:21:19;;;;;;;10.45;9.350001;;;;;;;11.38;95.39844;94699.31;;;;
2019/09/23 01:22:21;;;;;;;10.45;9.350001;;;;;;;11.38;95.39844;94699.31;;;;
2019/09/23 01:23:22;;;;;;;9.950001;8.950001;;;;;;;11.63;95.7627;94709.95;;;;
2019/09/23 01:24:23;;;;;;;9.950001;8.950001;;;;;;;11.63;95.7627;94709.95;;;;
2019/09/23 01:25:25;;;;;;;9.950001;8.950001;;;;;;;11.63;95.7627;94709.95;;;;
2019/09/23 01:26:26;;;;;;;9.950001;8.950001;;;;;;;11.63;95.7627;94709.95;;;;
2019/09/23 01:27:28;;;;;;;9.950001;8.950001;;;;;;;11.63;95.7627;94709.95;;;;
2019/09/23 01:28:29;;;;;;;9.950001;8.950001;;;;;;;11.63;95.7627;94709.95;;;;
2019/09/23 01:29:30;;;;;;;9.950001;8.950001;;;;;;;11.63;95.7627;94709.95;;;;
2019/09/23 01:30:32;;;;;;;9.950001;8.950001;;;;;;;11.63;95.7627;94709.95;;;;
2019/09/23 01:31:38;;;;;;;9.950001;8.950001;;;;;;;11.63;95.7627;94709.95;;;;
2019/09/23 01:32:39;;;;;;;9.950001;8.950001;;;;;;;11.63;95.7627;94709.95;;;;
2019/09/23 01:33:41;;;;;;;10.95;10;;;;;;;11.78;96.0752;94717.69;;;;
2019/09/23 01:34:42;;;;;;;10.95;10;;;;;;;11.78;96.0752;94717.69;;;;
2019/09/23 01:35:43;;;;;;;10.95;10;;;;;;;11.78;96.0752;94717.69;;;;
2019/09/23 01:36:44;;;;;;;10.95;10;;;;;;;11.78;96.0752;94717.69;;;;
2019/09/23 01:37:46;;;;;;;10.95;10;;;;;;;11.78;96.0752;94717.69;;;;
2019/09/23 01:38:47;;;;;;;10.95;10;;;;;;;11.78;96.0752;94717.69;;;;
2019/09/23 01:39:48;;;;;;;10.95;10;;;;;;;11.78;96.0752;94717.69;;;;
2019/09/23 01:40:49;;;;;;;10.95;10;;;;;;;11.78;96.0752;94717.69;;;;
2019/09/23 01:41:51;;;;;;;10.95;10;;;;;;;11.78;96.0752;94717.69;;;;
2019/09/23 01:42:52;;;;;;;10.95;10;;;;;;;11.78;96.0752;94717.69;;;;
2019/09/23 01:43:53;;;;;;;10.45;9.45;;;;;;;12.02;96.51953;94716.41;;;;
2019/09/23 01:44:54;;;;;;;10.45;9.45;;;;;;;12.02;96.51953;94716.41;;;;
2019/09/23 01:45:56;;;;;;;10.45;9.45;;;;;;;12.02;96.51953;94716.41;;;;
2019/09/23 01:46:57;;;;;;;10.45;9.45;;;;;;;12.02;96.51953;94716.41;;;;
2019/09/23 01:47:58;;;;;;;10.45;9.45;;;;;;;12.02;96.51953;94716.41;;;;
2019/09/23 01:48:59;;;;;;;10.45;9.45;;;;;;;12.02;96.51953;94716.41;;;;
2019/09/23 01:50:01;;;;;;;10.45;9.45;;;;;;;12.02;96.51953;94716.41;;;;
2019/09/23 01:51:03;;;;;;;10.45;9.45;;;;;;;12.02;96.51953;94716.41;;;;
2019/09/23 01:52:04;;;;;;;10.45;9.45;;;;;;;12.02;96.51953;94716.41;;;;
2019/09/23 01:53:06;;;;;;;10.45;9.45;;;;;;;12.02;96.51953;94716.41;;;;
2019/09/23 01:54:07;;;;;;;10.45;9.45;;;;;;;12.02;96.51953;94716.41;;;;
2019/09/23 01:55:09;;;;;;;11.3;10.2;;;;;;;12.2;96.80371;94723.75;;;;
2019/09/23 01:56:11;;;;;;;11.3;10.2;;;;;;;12.2;96.80371;94723.75;;;;
2019/09/23 01:57:12;;;;;;;11.3;10.2;;;;;;;12.2;96.80371;94723.75;;;;
2019/09/23 01:58:13;;;;;;;11.3;10.2;;;;;;;12.2;96.80371;94723.75;;;;
2019/09/23 01:59:15;;;;;;;11.3;10.2;;;;;;;12.2;96.80371;94723.75;;;;
2019/09/23 02:00:16;;;;;;;11.3;10.2;;;;;;;12.2;96.80371;94723.75;;;;
2019/09/23 02:05:30;;;;;;;11.45;10.45;;;;;;;12.44;97.09277;94721.33;;;;
2019/09/23 02:06:32;;;;;;;11.45;10.45;;;;;;;12.44;97.09277;94721.33;;;;
2019/09/23 02:07:33;;;;;;;11.45;10.45;;;;;;;12.44;97.09277;94721.33;;;;
2019/09/23 02:08:34;;;;;;;11.45;10.45;;;;;;;12.44;97.09277;94721.33;;;;
2019/09/23 02:09:35;;;;;;;11.45;10.45;;;;;;;12.44;97.09277;94721.33;;;;
2019/09/23 02:10:37;;;;;;;11.45;10.45;;;;;;;12.44;97.09277;94721.33;;;;
2019/09/23 02:11:44;;;;;;;11.45;10.45;;;;;;;12.44;97.09277;94721.33;;;;
2019/09/23 02:12:45;;;;;;;11.45;10.45;;;;;;;12.44;97.09277;94721.33;;;;
2019/09/23 02:13:46;;;;;;;11.45;10.45;;;;;;;12.44;97.09277;94721.33;;;;
2019/09/23 02:14:47;;;;;;;11.45;10.45;;;;;;;12.44;97.09277;94721.33;;;;
2019/09/23 02:15:48;;;;;;;11;9.950001;;;;;;;12.59;97.4248;94724.53;;;;
2019/09/23 02:16:50;;;;;;;11;9.950001;;;;;;;12.59;97.4248;94724.53;;;;
2019/09/23 02:17:51;;;;;;;11;9.950001;;;;;;;12.59;97.4248;94724.53;;;;
2019/09/23 02:18:52;;;;;;;11;9.950001;;;;;;;12.59;97.4248;94724.53;;;;
2019/09/23 02:19:53;;;;;;;11;9.950001;;;;;;;12.59;97.4248;94724.53;;;;
2019/09/23 02:20:54;;;;;;;11;9.950001;;;;;;;12.59;97.4248;94724.53;;;;
2019/09/23 02:21:56;;;;;;;11;9.950001;;;;;;;12.59;97.4248;94724.53;;;;
2019/09/23 02:22:57;;;;;;;11;9.950001;;;;;;;12.59;97.4248;94724.53;;;;
2019/09/23 02:23:58;;;;;;;11;9.950001;;;;;;;12.59;97.4248;94724.53;;;;
2019/09/23 02:25:03;;;;;;;11;9.950001;;;;;;;12.59;97.4248;94724.53;;;;
2019/09/23 02:26:04;;;;;;;13.1;9.650001;;;;;;;12.78;97.80957;94731.16;;;;
2019/09/23 02:27:06;;;;;;;13.1;9.650001;;;;;;;12.78;97.80957;94731.16;;;;
2019/09/23 02:28:07;;;;;;;13.1;9.650001;;;;;;;12.78;97.80957;94731.16;;;;
2019/09/23 02:29:10;;;;;;;13.1;9.650001;;;;;;;12.78;97.80957;94731.16;;;;
2019/09/23 02:30:11;;;;;;;13.1;9.650001;;;;;;;12.78;97.80957;94731.16;;;;
2019/09/23 02:31:13;;;;;;;13.1;9.650001;;;;;;;12.78;97.80957;94731.16;;;;
2019/09/23 02:32:14;;;;;;;13.1;9.650001;;;;;;;12.78;97.80957;94731.16;;;;
2019/09/23 02:33:16;;;;;;;13.1;9.650001;;;;;;;12.78;97.80957;94731.16;;;;
2019/09/23 02:34:17;;;;;;;13.1;9.650001;;;;;;;12.78;97.80957;94731.16;;;;
2019/09/23 02:35:18;;;;;;;13.1;9.650001;;;;;;;12.78;97.80957;94731.16;;;;
2019/09/23 02:36:20;;;;;;;13.1;9.650001;;;;;;;12.78;97.80957;94731.16;;;;
2019/09/23 02:37:21;;;;;;;10.15;9.150002;;;;;;;12.81;98.10254;94759.07;;;;
2019/09/23 02:38:22;;;;;;;10.15;9.150002;;;;;;;12.81;98.10254;94759.07;;;;
2019/09/23 02:39:24;;;;;;;10.15;9.150002;;;;;;;12.81;98.10254;94759.07;;;;
2019/09/23 02:40:25;;;;;;;10.15;9.150002;;;;;;;12.81;98.10254;94759.07;;;;
2019/09/23 02:41:29;;;;;;;10.15;9.150002;;;;;;;12.81;98.10254;94759.07;;;;
2019/09/23 02:42:30;;;;;;;10.15;9.150002;;;;;;;12.81;98.10254;94759.07;;;;
2019/09/23 02:43:31;;;;;;;10.15;9.150002;;;;;;;12.81;98.10254;94759.07;;;;
2019/09/23 02:44:33;;;;;;;10.15;9.150002;;;;;;;12.81;98.10254;94759.07;;;;
2019/09/23 02:45:34;;;;;;;10.15;9.150002;;;;;;;12.81;98.10254;94759.07;;;;
2019/09/23 02:46:37;;;;;;;10.15;9.150002;;;;;;;12.81;98.10254;94759.07;;;;
2019/09/23 02:47:38;;;;;;;11.25;10.2;;;;;;;12.83;98.52539;94756.5;;;;
2019/09/23 02:48:39;;;;;;;11.25;10.2;;;;;;;12.83;98.52539;94756.5;;;;
2019/09/23 02:49:40;;;;;;;11.25;10.2;;;;;;;12.83;98.52539;94756.5;;;;
2019/09/23 02:50:42;;;;;;;11.25;10.2;;;;;;;12.83;98.52539;94756.5;;;;
2019/09/23 02:51:45;;;;;;;11.25;10.2;;;;;;;12.83;98.52539;94756.5;;;;
2019/09/23 02:53:05;;;;;;;11.25;10.2;;;;;;;12.83;98.52539;94756.5;;;;
2019/09/23 02:54:06;;;;;;;11.25;10.2;;;;;;;12.83;98.52539;94756.5;;;;
2019/09/23 02:55:07;;;;;;;11.25;10.2;;;;;;;12.83;98.52539;94756.5;;;;
2019/09/23 02:56:09;;;;;;;11.25;10.2;;;;;;;12.83;98.52539;94756.5;;;;
2019/09/23 02:57:10;;;;;;;11.25;10.2;;;;;;;12.83;98.52539;94756.5;;;;
2019/09/23 02:58:13;;;;;;;13;11.65;;;;;;;12.93;99.30469;94758.87;;;;
2019/09/23 02:59:14;;;;;;;13;11.65;;;;;;;12.93;99.30469;94758.87;;;;
2019/09/23 03:00:15;;;;;;;13;11.65;;;;;;;12.93;99.30469;94758.87;;;;
2019/09/23 03:01:17;;;;;;;13;11.65;;;;;;;12.93;99.30469;94758.87;;;;
2019/09/23 03:02:21;;;;;;;13;11.65;;;;;;;12.93;99.30469;94758.87;;;;
2019/09/23 03:03:22;;;;;;;13;11.65;;;;;;;12.93;99.30469;94758.87;;;;
2019/09/23 03:04:23;;;;;;;13;11.65;;;;;;;12.93;99.30469;94758.87;;;;
2019/09/23 03:05:24;;;;;;;13;11.65;;;;;;;12.93;99.30469;94758.87;;;;
2019/09/23 03:06:26;;;;;;;13;11.65;;;;;;;12.93;99.30469;94758.87;;;;
2019/09/23 03:07:27;;;;;;;13;11.65;;;;;;;12.93;99.30469;94758.87;;;;
2019/09/23 03:08:28;;;;;;;13;11.65;;;;;;;12.93;99.30469;94758.87;;;;
2019/09/23 03:09:29;;;;;;;12.45;11.25;;;;;;;13.34;99.93066;94774.81;;;;
2019/09/23 03:10:31;;;;;;;12.45;11.25;;;;;;;13.34;99.93066;94774.81;;;;
2019/09/23 03:11:32;;;;;;;12.45;11.25;;;;;;;13.34;99.93066;94774.81;;;;
2019/09/23 03:12:34;;;;;;;12.45;11.25;;;;;;;13.34;99.93066;94774.81;;;;
2019/09/23 03:13:35;;;;;;;12.45;11.25;;;;;;;13.34;99.93066;94774.81;;;;
2019/09/23 03:14:36;;;;;;;12.45;11.25;;;;;;;13.34;99.93066;94774.81;;;;
2019/09/23 03:15:37;;;;;;;12.45;11.25;;;;;;;13.34;99.93066;94774.81;;;;
2019/09/23 03:16:43;;;;;;;12.45;11.25;;;;;;;13.34;99.93066;94774.81;;;;
2019/09/23 03:17:44;;;;;;;12.45;11.25;;;;;;;13.34;99.93066;94774.81;;;;
2019/09/23 03:18:45;;;;;;;12.45;11.25;;;;;;;13.34;99.93066;94774.81;;;;
2019/09/23 03:19:46;;;;;;;12;10.9;;;;;;;13.65;100;94799.62;;;;
2019/09/23 03:20:48;;;;;;;12;10.9;;;;;;;13.65;100;94799.62;;;;
2019/09/23 03:21:49;;;;;;;12;10.9;;;;;;;13.65;100;94799.62;;;;
2019/09/23 03:22:50;;;;;;;12;10.9;;;;;;;13.65;100;94799.62;;;;
2019/09/23 03:23:51;;;;;;;12;10.9;;;;;;;13.65;100;94799.62;;;;
2019/09/23 03:24:52;;;;;;;12;10.9;;;;;;;13.65;100;94799.62;;;;
2019/09/23 03:25:53;;;;;;;12;10.9;;;;;;;13.65;100;94799.62;;;;
2019/09/23 03:26:54;;;;;;;12;10.9;;;;;;;13.65;100;94799.62;;;;
2019/09/23 03:27:56;;;;;;;12;10.9;;;;;;;13.65;100;94799.62;;;;
2019/09/23 03:28:57;;;;;;;12;10.9;;;;;;;13.65;100;94799.62;;;;
2019/09/23 03:29:58;;;;;;;10.95;9.1;;;;;;;13.91;100;94820.29;;;;
2019/09/23 03:30:59;;;;;;;10.95;9.1;;;;;;;13.91;100;94820.29;;;;
2019/09/23 03:32:03;;;;;;;10.95;9.1;;;;;;;13.91;100;94820.29;;;;
2019/09/23 03:33:05;;;;;;;10.95;9.1;;;;;;;13.91;100;94820.29;;;;
2019/09/23 03:34:06;;;;;;;10.95;9.1;;;;;;;13.91;100;94820.29;;;;
2019/09/23 03:35:08;;;;;;;10.95;9.1;;;;;;;13.91;100;94820.29;;;;
2019/09/23 03:36:09;;;;;;;10.95;9.1;;;;;;;13.91;100;94820.29;;;;
2019/09/23 03:37:10;;;;;;;10.95;9.1;;;;;;;13.91;100;94820.29;;;;
2019/09/23 03:38:12;;;;;;;10.95;9.1;;;;;;;13.91;100;94820.29;;;;
2019/09/23 03:39:13;;;;;;;10.95;9.1;;;;;;;13.91;100;94820.29;;;;
2019/09/23 03:40:14;;;;;;;10.95;9.1;;;;;;;13.91;100;94820.29;;;;
2019/09/23 03:41:18;;;;;;;10.45;9.399999;;;;;;;14.09;100;94834.2;;;;
2019/09/23 03:42:19;;;;;;;10.45;9.399999;;;;;;;14.09;100;94834.2;;;;
2019/09/23 03:43:21;;;;;;;10.45;9.399999;;;;;;;14.09;100;94834.2;;;;
2019/09/23 03:44:22;;;;;;;10.45;9.399999;;;;;;;14.09;100;94834.2;;;;
2019/09/23 03:45:42;;;;;;;10.45;9.399999;;;;;;;14.09;100;94834.2;;;;
2019/09/23 03:46:54;;;;;;;10.45;9.399999;;;;;;;14.09;100;94834.2;;;;
2019/09/23 03:47:56;;;;;;;10.45;9.399999;;;;;;;14.09;100;94834.2;;;;
2019/09/23 03:48:57;;;;;;;10.45;9.399999;;;;;;;14.09;100;94834.2;;;;
2019/09/23 03:49:59;;;;;;;10.45;9.399999;;;;;;;14.09;100;94834.2;;;;
2019/09/23 03:51:00;;;;;;;13.25;11.7;;;;;;;14.36;100;94854.37;;;;
2019/09/23 03:52:01;;;;;;;13.25;11.7;;;;;;;14.36;100;94854.37;;;;
2019/09/23 03:53:03;;;;;;;13.25;11.7;;;;;;;14.36;100;94854.37;;;;
2019/09/23 03:54:04;;;;;;;13.25;11.7;;;;;;;14.36;100;94854.37;;;;
2019/09/23 03:55:06;;;;;;;13.25;11.7;;;;;;;14.36;100;94854.37;;;;
2019/09/23 03:56:08;;;;;;;13.25;11.7;;;;;;;14.36;100;94854.37;;;;
2019/09/23 03:57:11;;;;;;;13.25;11.7;;;;;;;14.36;100;94854.37;;;;
2019/09/23 03:58:12;;;;;;;13.25;11.7;;;;;;;14.36;100;94854.37;;;;
2019/09/23 03:59:13;;;;;;;13.25;11.7;;;;;;;14.36;100;94854.37;;;;
2019/09/23 04:00:14;;;;;;;13.25;11.7;;;;;;;14.36;100;94854.37;;;;
2019/09/23 04:01:17;;;;;;;13.25;11.7;;;;;;;14.36;100;94854.37;;;;
2019/09/23 04:02:20;;;;;;;9.549999;7.45;;;;;;;14.59;100;94861.05;;;;
2019/09/23 04:03:21;;;;;;;9.549999;7.45;;;;;;;14.59;100;94861.05;;;;
2019/09/23 04:04:23;;;;;;;9.549999;7.45;;;;;;;14.59;100;94861.05;;;;
2019/09/23 04:05:24;;;;;;;9.549999;7.45;;;;;;;14.59;100;94861.05;;;;
2019/09/23 04:06:25;;;;;;;9.549999;7.45;;;;;;;14.59;100;94861.05;;;;
2019/09/23 04:07:27;;;;;;;9.549999;7.45;;;;;;;14.59;100;94861.05;;;;
2019/09/23 04:08:28;;;;;;;9.549999;7.45;;;;;;;14.59;100;94861.05;;;;
2019/09/23 04:09:29;;;;;;;9.549999;7.45;;;;;;;14.59;100;94861.05;;;;
2019/09/23 04:10:30;;;;;;;9.549999;7.45;;;;;;;14.59;100;94861.05;;;;
2019/09/23 04:11:32;;;;;;;9.549999;7.45;;;;;;;14.59;100;94861.05;;;;
2019/09/23 04:12:33;;;;;;;6.3;5.699999;;;;;;;14.84;100;94876.15;;;;
2019/09/23 04:13:34;;;;;;;6.3;5.699999;;;;;;;14.84;100;94876.15;;;;
2019/09/23 04:14:35;;;;;;;6.3;5.699999;;;;;;;14.84;100;94876.15;;;;
2019/09/23 04:15:36;;;;;;;6.3;5.699999;;;;;;;14.84;100;94876.15;;;;
2019/09/23 04:16:39;;;;;;;6.3;5.699999;;;;;;;14.84;100;94876.15;;;;
2019/09/23 04:17:40;;;;;;;6.3;5.699999;;;;;;;14.84;100;94876.15;;;;
2019/09/23 04:18:41;;;;;;;6.3;5.699999;;;;;;;14.84;100;94876.15;;;;
2019/09/23 04:19:42;;;;;;;6.3;5.699999;;;;;;;14.84;100;94876.15;;;;
2019/09/23 04:20:43;;;;;;;6.3;5.699999;;;;;;;14.84;100;94876.15;;;;
2019/09/23 04:21:46;;;;;;;6.3;5.699999;;;;;;;14.84;100;94876.15;;;;
2019/09/23 04:22:47;;;;;;;6.3;5.699999;;;;;;;14.84;100;94876.15;;;;
2019/09/23 04:23:48;;;;;;;2.3;2;;;;;;;15.03;100;94890.41;;;;
2019/09/23 04:24:50;;;;;;;2.3;2;;;;;;;15.03;100;94890.41;;;;
2019/09/23 04:25:51;;;;;;;2.3;2;;;;;;;15.03;100;94890.41;;;;
2019/09/23 04:26:57;;;;;;;2.3;2;;;;;;;15.03;100;94890.41;;;;
2019/09/23 04:27:58;;;;;;;2.3;2;;;;;;;15.03;100;94890.41;;;;
2019/09/23 04:29:00;;;;;;;2.3;2;;;;;;;15.03;100;94890.41;;;;
2019/09/23 04:30:01;;;;;;;2.3;2;;;;;;;15.03;100;94890.41;;;;
2019/09/23 04:31:03;;;;;;;2.3;2;;;;;;;15.03;100;94890.41;;;;
2019/09/23 04:32:06;;;;;;;2.3;2;;;;;;;15.03;100;94890.41;;;;
2019/09/23 04:33:07;;;;;;;2.3;2;;;;;;;15.03;100;94890.41;;;;
2019/09/23 04:34:09;;;;;;;5.15;1.2;;;;;;;15.2;100;94908.06;;;;
2019/09/23 04:35:10;;;;;;;5.15;1.2;;;;;;;15.2;100;94908.06;;;;
2019/09/23 04:36:12;;;;;;;5.15;1.2;;;;;;;15.2;100;94908.06;;;;
2019/09/23 04:37:14;;;;;;;5.15;1.2;;;;;;;15.2;100;94908.06;;;;
2019/09/23 04:38:16;;;;;;;5.15;1.2;;;;;;;15.2;100;94908.06;;;;
2019/09/23 04:39:17;;;;;;;5.15;1.2;;;;;;;15.2;100;94908.06;;;;
2019/09/23 04:40:20;;;;;;;5.15;1.2;;;;;;;15.2;100;94908.06;;;;
2019/09/23 04:41:21;;;;;;;5.15;1.2;;;;;;;15.2;100;94908.06;;;;
2019/09/23 04:42:22;;;;;;;5.15;1.2;;;;;;;15.2;100;94908.06;;;;
2019/09/23 04:43:24;;;;;;;5.15;1.2;;;;;;;15.2;100;94908.06;;;;
2019/09/23 04:44:25;;;;;;;5.15;1.2;;;;;;;15.2;100;94908.06;;;;
2019/09/23 04:45:26;;;;;;;5.15;1.2;;;;;;;15.2;100;94908.06;;;;
2019/09/23 04:46:28;;;;;;;5.15;1.2;;;;;;;15.2;100;94908.06;;;;
2019/09/23 04:47:29;;;;;;;5.15;1.2;;;;;;;15.2;100;94908.06;;;;
2019/09/23 04:48:30;;;;;;;5.15;1.2;;;;;;;15.2;100;94908.06;;;;
2019/09/23 04:49:31;;;;;;;5.15;1.2;;;;;;;15.2;100;94908.06;;;;
2019/09/23 04:50:32;;;;;;;5.15;1.2;;;;;;;15.2;100;94908.06;;;;
2019/09/23 04:51:34;;;;;;;5.15;1.2;;;;;;;15.2;100;94908.06;;;;
2019/09/23 04:52:35;;;;;;;5.15;1.2;;;;;;;15.2;100;94908.06;;;;
2019/09/23 04:53:36;;;;;;;5.15;1.2;;;;;;;15.2;100;94908.06;;;;
2019/09/23 04:54:37;;;;;;;5.15;1.2;;;;;;;15.2;100;94908.06;;;;
2019/09/23 04:55:39;;;;;;;2.3;0.8;;;;;;;15.34;100;94951.45;;;;
2019/09/23 04:56:40;;;;;;;2.3;0.8;;;;;;;15.34;100;94951.45;;;;
2019/09/23 04:57:41;;;;;;;2.3;0.8;;;;;;;15.34;100;94951.45;;;;
2019/09/23 04:58:42;;;;;;;2.3;0.8;;;;;;;15.34;100;94951.45;;;;
2019/09/23 04:59:44;;;;;;;2.3;0.8;;;;;;;15.34;100;94951.45;;;;
2019/09/23 05:00:45;;;;;;;2.3;0.8;;;;;;;15.34;100;94951.45;;;;
2019/09/23 05:01:47;;;;;;;2.3;0.8;;;;;;;15.34;100;94951.45;;;;
2019/09/23 05:02:48;;;;;;;2.3;0.8;;;;;;;15.34;100;94951.45;;;;
2019/09/23 05:03:49;;;;;;;2.3;0.8;;;;;;;15.34;100;94951.45;;;;
2019/09/23 05:04:50;;;;;;;2.3;0.8;;;;;;;15.34;100;94951.45;;;;
2019/09/23 05:05:51;;;;;;;0.9;0.8;;;;;;;15.2;99.98828;94956.22;;;;
2019/09/23 05:06:52;;;;;;;0.9;0.8;;;;;;;15.2;99.98828;94956.22;;;;
2019/09/23 05:07:54;;;;;;;0.9;0.8;;;;;;;15.2;99.98828;94956.22;;;;
2019/09/23 05:08:55;;;;;;;0.9;0.8;;;;;;;15.2;99.98828;94956.22;;;;
2019/09/23 05:09:56;;;;;;;0.9;0.8;;;;;;;15.2;99.98828;94956.22;;;;
2019/09/23 05:10:57;;;;;;;0.9;0.8;;;;;;;15.2;99.98828;94956.22;;;;
2019/09/23 05:11:58;;;;;;;0.9;0.8;;;;;;;15.2;99.98828;94956.22;;;;
2019/09/23 05:12:59;;;;;;;0.9;0.8;;;;;;;15.2;99.98828;94956.22;;;;
2019/09/23 05:14:00;;;;;;;0.9;0.8;;;;;;;15.2;99.98828;94956.22;;;;
2019/09/23 05:15:02;;;;;;;0.9;0.8;;;;;;;15.2;99.98828;94956.22;;;;
2019/09/23 05:16:04;;;;;;;0.9;0.8;;;;;;;15.2;99.98828;94956.22;;;;
2019/09/23 05:17:08;;;;;;;1.25;0.8;;;;;;;15.11;100;94986.25;;;;
2019/09/23 05:18:09;;;;;;;1.25;0.8;;;;;;;15.11;100;94986.25;;;;
2019/09/23 05:19:12;;;;;;;1.25;0.8;;;;;;;15.11;100;94986.25;;;;
2019/09/23 05:20:17;;;;;;;1.25;0.8;;;;;;;15.11;100;94986.25;;;;
2019/09/23 05:21:19;;;;;;;1.25;0.8;;;;;;;15.11;100;94986.25;;;;
2019/09/23 05:22:20;;;;;;;1.25;0.8;;;;;;;15.11;100;94986.25;;;;
2019/09/23 05:23:21;;;;;;;1.25;0.8;;;;;;;15.11;100;94986.25;;;;
2019/09/23 05:24:22;;;;;;;1.25;0.8;;;;;;;15.11;100;94986.25;;;;
2019/09/23 05:25:24;;;;;;;1.25;0.8;;;;;;;15.11;100;94986.25;;;;
2019/09/23 05:26:25;;;;;;;1.25;0.8;;;;;;;15.11;100;94986.25;;;;
2019/09/23 05:27:33;;;;;;;1.4;0.9;;;;;;;14.92;100;94993.44;;;;
2019/09/23 05:28:34;;;;;;;1.4;0.9;;;;;;;14.92;100;94993.44;;;;
2019/09/23 05:29:35;;;;;;;1.4;0.9;;;;;;;14.92;100;94993.44;;;;
2019/09/23 05:30:36;;;;;;;1.4;0.9;;;;;;;14.92;100;94993.44;;;;
2019/09/23 05:31:55;;;;;;;1.4;0.9;;;;;;;14.92;100;94993.44;;;;
2019/09/23 05:32:56;;;;;;;1.4;0.9;;;;;;;14.92;100;94993.44;;;;
2019/09/23 05:33:57;;;;;;;1.4;0.9;;;;;;;14.92;100;94993.44;;;;
2019/09/23 05:34:58;;;;;;;1.4;0.9;;;;;;;14.92;100;94993.44;;;;
2019/09/23 05:36:00;;;;;;;1.4;0.9;;;;;;;14.92;100;94993.44;;;;
2019/09/23 05:37:02;;;;;;;1.4;0.9;;;;;;;14.92;100;94993.44;;;;
2019/09/23 05:38:03;;;;;;;2.5;1.1;;;;;;;14.7;100;95021.41;;;;
2019/09/23 05:39:04;;;;;;;2.5;1.1;;;;;;;14.7;100;95021.41;;;;
2019/09/23 05:40:07;;;;;;;2.5;1.1;;;;;;;14.7;100;95021.41;;;;
2019/09/23 05:41:09;;;;;;;2.5;1.1;;;;;;;14.7;100;95021.41;;;;
2019/09/23 05:42:31;;;;;;;2.5;1.1;;;;;;;14.7;100;95021.41;;;;
2019/09/23 05:43:32;;;;;;;2.5;1.1;;;;;;;14.7;100;95021.41;;;;
2019/09/23 05:44:34;;;;;;;2.5;1.1;;;;;;;14.7;100;95021.41;;;;
2019/09/23 05:45:35;;;;;;;2.5;1.1;;;;;;;14.7;100;95021.41;;;;
2019/09/23 05:46:36;;;;;;;2.5;1.1;;;;;;;14.7;100;95021.41;;;;
2019/09/23 05:47:37;;;;;;;2.5;1.1;;;;;;;14.7;100;95021.41;;;;
2019/09/23 05:48:38;;;;;;;2.5;1.1;;;;;;;14.34;100;95029.41;;;;
2019/09/23 05:49:39;;;;;;;2.5;1.1;;;;;;;14.34;100;95029.41;;;;
2019/09/23 05:50:47;;;;;;;2.5;1.1;;;;;;;14.34;100;95029.41;;;;
2019/09/23 05:51:49;;;;;;;2.5;1.1;;;;;;;14.34;100;95029.41;;;;
2019/09/23 05:52:50;;;;;;;2.5;1.1;;;;;;;14.34;100;95029.41;;;;
2019/09/23 05:53:51;;;;;;;2.5;1.1;;;;;;;14.34;100;95029.41;;;;
2019/09/23 05:54:53;;;;;;;2.5;1.1;;;;;;;14.34;100;95029.41;;;;
2019/09/23 05:55:54;;;;;;;2.5;1.1;;;;;;;14.34;100;95029.41;;;;
2019/09/23 05:56:55;;;;;;;2.5;1.1;;;;;;;14.34;100;95029.41;;;;
2019/09/23 05:57:56;;;;;;;2.5;1.1;;;;;;;14.34;100;95029.41;;;;